sensor_id;sensor_type;location;lat;lon;timestamp;pressure;altitude;pressure_sealevel;temperature;humidity
46007;BME280;31738;50.188;8.524;2023-03-05T00:01:04;99247.72;;;6.68;71.44
46007;BME280;31738;50.188;8.524;2023-03-05T00:03:30;99252.00;;;6.69;71.01
46007;BME280;31738;50.188;8.524;2023-03-05T00:05:56;99246.31;;;6.65;71.51
46007;BME280;31738;50.188;8.524;2023-03-05T00:08:22;99247.38;;;6.64;71.24
46007;BME280;31738;50.188;8.524;2023-03-05T00:10:57;99250.28;;;6.63;71.31
46007;BME280;31738;50.188;8.524;2023-03-05T00:13:23;99250.75;;;6.60;71.68
46007;BME280;31738;50.188;8.524;2023-03-05T00:15:49;99246.47;;;6.59;71.27
46007;BME280;31738;50.188;8.524;2023-03-05T00:18:15;99252.81;;;6.58;71.30
46007;BME280;31738;50.188;8.524;2023-03-05T00:20:40;99245.41;;;6.60;71.50
46007;BME280;31738;50.188;8.524;2023-03-05T00:23:05;99241.38;;;6.57;70.98
46007;BME280;31738;50.188;8.524;2023-03-05T00:25:34;99251.81;;;6.59;71.45
46007;BME280;31738;50.188;8.524;2023-03-05T00:27:59;99247.03;;;6.61;71.14
46007;BME280;31738;50.188;8.524;2023-03-05T00:30:25;99248.31;;;6.58;71.39
46007;BME280;31738;50.188;8.524;2023-03-05T00:32:50;99249.94;;;6.59;71.54
46007;BME280;31738;50.188;8.524;2023-03-05T00:35:16;99246.72;;;6.57;71.20
46007;BME280;31738;50.188;8.524;2023-03-05T00:37:41;99248.78;;;6.55;70.88
46007;BME280;31738;50.188;8.524;2023-03-05T00:40:08;99251.22;;;6.57;70.92
46007;BME280;31738;50.188;8.524;2023-03-05T00:42:34;99252.16;;;6.51;70.58
46007;BME280;31738;50.188;8.524;2023-03-05T00:45:07;99248.44;;;6.52;70.67
46007;BME280;31738;50.188;8.524;2023-03-05T00:47:33;99245.22;;;6.50;70.68
46007;BME280;31738;50.188;8.524;2023-03-05T00:49:59;99249.50;;;6.51;70.11
46007;BME280;31738;50.188;8.524;2023-03-05T00:52:24;99250.56;;;6.50;70.33
46007;BME280;31738;50.188;8.524;2023-03-05T00:54:50;99249.50;;;6.51;69.80
46007;BME280;31738;50.188;8.524;2023-03-05T00:57:15;99239.31;;;6.48;69.92
46007;BME280;31738;50.188;8.524;2023-03-05T00:59:41;99241.97;;;6.48;69.91
46007;BME280;31738;50.188;8.524;2023-03-05T01:02:06;99242.22;;;6.46;69.58
46007;BME280;31738;50.188;8.524;2023-03-05T01:04:32;99247.53;;;6.46;69.48
46007;BME280;31738;50.188;8.524;2023-03-05T01:06:57;99231.78;;;6.45;69.47
46007;BME280;31738;50.188;8.524;2023-03-05T01:09:23;99237.13;;;6.45;69.76
46007;BME280;31738;50.188;8.524;2023-03-05T01:11:52;99232.56;;;6.45;69.32
46007;BME280;31738;50.188;8.524;2023-03-05T01:14:18;99238.72;;;6.46;69.29
46007;BME280;31738;50.188;8.524;2023-03-05T01:16:45;99233.63;;;6.44;69.28
46007;BME280;31738;50.188;8.524;2023-03-05T01:19:11;99236.28;;;6.44;69.32
46007;BME280;31738;50.188;8.524;2023-03-05T01:21:36;99238.13;;;6.44;69.23
46007;BME280;31738;50.188;8.524;2023-03-05T01:24:03;99232.25;;;6.42;68.99
46007;BME280;31738;50.188;8.524;2023-03-05T01:26:28;99227.41;;;6.39;69.09
46007;BME280;31738;50.188;8.524;2023-03-05T01:28:54;99228.66;;;6.36;68.50
46007;BME280;31738;50.188;8.524;2023-03-05T01:31:20;99227.88;;;6.36;68.69
46007;BME280;31738;50.188;8.524;2023-03-05T01:33:46;99233.19;;;6.36;68.37
46007;BME280;31738;50.188;8.524;2023-03-05T01:36:14;99224.97;;;6.37;68.50
46007;BME280;31738;50.188;8.524;2023-03-05T01:38:42;99224.16;;;6.37;68.82
46007;BME280;31738;50.188;8.524;2023-03-05T01:41:09;99219.63;;;6.37;68.87
46007;BME280;31738;50.188;8.524;2023-03-05T01:43:35;99218.81;;;6.37;69.18
46007;BME280;31738;50.188;8.524;2023-03-05T01:48:46;99208.63;;;6.34;69.22
46007;BME280;31738;50.188;8.524;2023-03-05T01:51:12;99203.53;;;6.32;69.46
46007;BME280;31738;50.188;8.524;2023-03-05T01:53:39;99203.53;;;6.32;69.31
46007;BME280;31738;50.188;8.524;2023-03-05T01:56:05;99200.06;;;6.32;69.24
46007;BME280;31738;50.188;8.524;2023-03-05T01:58:31;99195.19;;;6.29;68.91
46007;BME280;31738;50.188;8.524;2023-03-05T02:00:56;99195.19;;;6.29;69.11
46007;BME280;31738;50.188;8.524;2023-03-05T02:03:23;99192.28;;;6.30;69.15
46007;BME280;31738;50.188;8.524;2023-03-05T02:05:49;99196.00;;;6.29;68.84
46007;BME280;31738;50.188;8.524;2023-03-05T02:08:18;99190.69;;;6.29;68.85
46007;BME280;31738;50.188;8.524;2023-03-05T02:10:47;99182.13;;;6.27;69.19
46007;BME280;31738;50.188;8.524;2023-03-05T02:13:22;99180.50;;;6.26;69.13
46007;BME280;31738;50.188;8.524;2023-03-05T02:15:49;99175.41;;;6.25;69.21
46007;BME280;31738;50.188;8.524;2023-03-05T02:18:17;99177.03;;;6.26;69.40
46007;BME280;31738;50.188;8.524;2023-03-05T02:21:05;99163.69;;;6.26;69.77
46007;BME280;31738;50.188;8.524;2023-03-05T02:23:32;99165.22;;;6.22;69.88
46007;BME280;31738;50.188;8.524;2023-03-05T02:26:01;99164.66;;;6.20;69.47
46007;BME280;31738;50.188;8.524;2023-03-05T02:28:32;99160.94;;;6.21;69.47
46007;BME280;31738;50.188;8.524;2023-03-05T02:30:59;99167.53;;;6.18;69.93
46007;BME280;31738;50.188;8.524;2023-03-05T02:33:25;99157.72;;;6.19;70.07
46007;BME280;31738;50.188;8.524;2023-03-05T02:35:51;99156.06;;;6.18;69.84
46007;BME280;31738;50.188;8.524;2023-03-05T02:38:19;99156.06;;;6.18;69.85
46007;BME280;31738;50.188;8.524;2023-03-05T02:40:45;99152.84;;;6.16;70.02
46007;BME280;31738;50.188;8.524;2023-03-05T02:43:12;99152.84;;;6.16;70.21
46007;BME280;31738;50.188;8.524;2023-03-05T02:45:38;99155.50;;;6.16;70.38
46007;BME280;31738;50.188;8.524;2023-03-05T02:48:03;99148.00;;;6.13;70.19
46007;BME280;31738;50.188;8.524;2023-03-05T02:50:30;99144.28;;;6.14;70.53
46007;BME280;31738;50.188;8.524;2023-03-05T02:52:56;99145.09;;;6.14;70.21
46007;BME280;31738;50.188;8.524;2023-03-05T02:55:21;99147.53;;;6.16;70.22
46007;BME280;31738;50.188;8.524;2023-03-05T02:57:46;99144.28;;;6.14;70.37
46007;BME280;31738;50.188;8.524;2023-03-05T03:00:12;99141.03;;;6.12;70.05
46007;BME280;31738;50.188;8.524;2023-03-05T03:02:38;99139.44;;;6.11;70.61
46007;BME280;31738;50.188;8.524;2023-03-05T03:05:04;99137.81;;;6.10;70.09
46007;BME280;31738;50.188;8.524;2023-03-05T03:07:30;99137.81;;;6.10;70.60
46007;BME280;31738;50.188;8.524;2023-03-05T03:09:55;99130.84;;;6.09;70.57
46007;BME280;31738;50.188;8.524;2023-03-05T03:12:21;99129.25;;;6.08;70.67
46007;BME280;31738;50.188;8.524;2023-03-05T03:14:46;99124.97;;;6.07;70.83
46007;BME280;31738;50.188;8.524;2023-03-05T03:17:14;99128.41;;;6.07;70.63
46007;BME280;31738;50.188;8.524;2023-03-05T03:19:41;99129.13;;;6.03;70.72
46007;BME280;31738;50.188;8.524;2023-03-05T03:22:09;99121.97;;;6.03;70.72
46007;BME280;31738;50.188;8.524;2023-03-05T03:24:38;99122.78;;;6.04;70.46
46007;BME280;31738;50.188;8.524;2023-03-05T03:27:04;99125.69;;;6.02;69.74
46007;BME280;31738;50.188;8.524;2023-03-05T03:29:29;99128.34;;;6.02;70.26
46007;BME280;31738;50.188;8.524;2023-03-05T03:31:55;99128.81;;;5.99;69.78
46007;BME280;31738;50.188;8.524;2023-03-05T03:34:20;99126.94;;;6.00;70.26
46007;BME280;31738;50.188;8.524;2023-03-05T03:36:48;99123.72;;;5.98;70.15
46007;BME280;31738;50.188;8.524;2023-03-05T03:39:13;99122.19;;;5.90;70.02
46007;BME280;31738;50.188;8.524;2023-03-05T03:41:43;99116.56;;;5.87;69.66
46007;BME280;31738;50.188;8.524;2023-03-05T03:44:09;99130.31;;;5.84;69.92
46007;BME280;31738;50.188;8.524;2023-03-05T03:46:36;99111.69;;;5.84;69.51
46007;BME280;31738;50.188;8.524;2023-03-05T03:49:02;99115.38;;;5.83;69.68
46007;BME280;31738;50.188;8.524;2023-03-05T03:51:28;99121.38;;;5.78;69.18
46007;BME280;31738;50.188;8.524;2023-03-05T03:53:54;99114.22;;;5.79;69.38
46007;BME280;31738;50.188;8.524;2023-03-05T03:56:20;99117.91;;;5.78;69.21
46007;BME280;31738;50.188;8.524;2023-03-05T03:58:49;99118.38;;;5.75;68.66
46007;BME280;31738;50.188;8.524;2023-03-05T04:01:14;99123.13;;;5.73;68.04
46007;BME280;31738;50.188;8.524;2023-03-05T04:03:39;99124.19;;;5.72;68.16
46007;BME280;31738;50.188;8.524;2023-03-05T04:06:05;99124.97;;;5.72;68.19
46007;BME280;31738;50.188;8.524;2023-03-05T04:08:31;99121.75;;;5.70;67.96
46007;BME280;31738;50.188;8.524;2023-03-05T04:10:59;99122.53;;;5.71;67.71
46007;BME280;31738;50.188;8.524;2023-03-05T04:13:25;99123.59;;;5.70;66.99
46007;BME280;31738;50.188;8.524;2023-03-05T04:15:50;99140.59;;;5.69;67.27
46007;BME280;31738;50.188;8.524;2023-03-05T04:18:15;99135.41;;;5.62;67.34
46007;BME280;31738;50.188;8.524;2023-03-05T04:20:41;99138.28;;;5.61;66.77
46007;BME280;31738;50.188;8.524;2023-03-05T04:23:06;99145.69;;;5.59;66.76
46007;BME280;31738;50.188;8.524;2023-03-05T04:25:32;99149.38;;;5.58;66.10
46007;BME280;31738;50.188;8.524;2023-03-05T04:27:57;99147.75;;;5.57;66.37
46007;BME280;31738;50.188;8.524;2023-03-05T04:30:23;99140.81;;;5.56;66.82
46007;BME280;31738;50.188;8.524;2023-03-05T04:32:48;99140.81;;;5.56;66.58
46007;BME280;31738;50.188;8.524;2023-03-05T04:35:13;99137.09;;;5.57;67.20
46007;BME280;31738;50.188;8.524;2023-03-05T04:37:39;99136.88;;;5.58;67.07
46007;BME280;31738;50.188;8.524;2023-03-05T04:40:05;99134.22;;;5.58;67.69
46007;BME280;31738;50.188;8.524;2023-03-05T04:42:30;99139.53;;;5.58;66.68
46007;BME280;31738;50.188;8.524;2023-03-05T04:44:56;99134.91;;;5.54;67.25
46007;BME280;31738;50.188;8.524;2023-03-05T04:47:21;99133.91;;;5.55;67.11
46007;BME280;31738;50.188;8.524;2023-03-05T04:49:47;99132.84;;;5.56;67.04
46007;BME280;31738;50.188;8.524;2023-03-05T04:52:13;99119.53;;;5.56;66.90
46007;BME280;31738;50.188;8.524;2023-03-05T04:54:39;99123.25;;;5.55;67.29
46007;BME280;31738;50.188;8.524;2023-03-05T04:57:05;99118.38;;;5.52;67.18
46007;BME280;31738;50.188;8.524;2023-03-05T04:59:30;99113.31;;;5.50;67.25
46007;BME280;31738;50.188;8.524;2023-03-05T05:02:21;99115.03;;;5.45;66.78
46007;BME280;31738;50.188;8.524;2023-03-05T05:16:14;99098.34;;;5.26;66.15
46007;BME280;31738;50.188;8.524;2023-03-05T05:18:43;99100.31;;;5.30;66.21
46007;BME280;31738;50.188;8.524;2023-03-05T05:21:12;99091.88;;;5.33;65.43
46007;BME280;31738;50.188;8.524;2023-03-05T05:23:38;99088.19;;;5.35;65.88
46007;BME280;31738;50.188;8.524;2023-03-05T05:26:06;99094.06;;;5.37;66.29
46007;BME280;31738;50.188;8.524;2023-03-05T05:28:33;99085.88;;;5.38;66.46
46007;BME280;31738;50.188;8.524;2023-03-05T05:31:06;99095.72;;;5.38;66.16
46007;BME280;31738;50.188;8.524;2023-03-05T05:33:32;99095.13;;;5.36;65.66
46007;BME280;31738;50.188;8.524;2023-03-05T05:36:03;99076.50;;;5.36;65.96
46007;BME280;31738;50.188;8.524;2023-03-05T05:38:37;99086.31;;;5.35;66.27
46007;BME280;31738;50.188;8.524;2023-03-05T05:41:13;99087.97;;;5.36;65.96
46007;BME280;31738;50.188;8.524;2023-03-05T05:43:39;99078.13;;;5.37;66.45
46007;BME280;31738;50.188;8.524;2023-03-05T05:46:13;99075.22;;;5.38;66.75
46007;BME280;31738;50.188;8.524;2023-03-05T05:48:39;99085.53;;;5.35;65.88
46007;BME280;31738;50.188;8.524;2023-03-05T05:51:06;99089.22;;;5.33;65.65
46007;BME280;31738;50.188;8.524;2023-03-05T05:53:32;99086.78;;;5.32;65.88
46007;BME280;31738;50.188;8.524;2023-03-05T05:55:58;99087.63;;;5.32;66.02
46007;BME280;31738;50.188;8.524;2023-03-05T05:58:23;99088.44;;;5.33;66.13
46007;BME280;31738;50.188;8.524;2023-03-05T06:00:48;99094.53;;;5.33;66.17
46007;BME280;31738;50.188;8.524;2023-03-05T06:03:14;99087.63;;;5.32;66.08
46007;BME280;31738;50.188;8.524;2023-03-05T06:05:41;99086.78;;;5.32;66.16
46007;BME280;31738;50.188;8.524;2023-03-05T06:08:06;99082.75;;;5.29;65.98
46007;BME280;31738;50.188;8.524;2023-03-05T06:10:32;99082.75;;;5.29;66.09
46007;BME280;31738;50.188;8.524;2023-03-05T06:12:57;99088.31;;;5.28;65.84
46007;BME280;31738;50.188;8.524;2023-03-05T06:15:23;99085.66;;;5.28;65.77
46007;BME280;31738;50.188;8.524;2023-03-05T06:17:48;99086.94;;;5.25;66.09
46007;BME280;31738;50.188;8.524;2023-03-05T06:20:14;99086.94;;;5.25;65.61
46007;BME280;31738;50.188;8.524;2023-03-05T06:22:40;99083.44;;;5.25;65.84
46007;BME280;31738;50.188;8.524;2023-03-05T06:25:06;99078.94;;;5.25;65.73
46007;BME280;31738;50.188;8.524;2023-03-05T06:27:35;99073.63;;;5.25;66.10
46007;BME280;31738;50.188;8.524;2023-03-05T06:30:01;99075.69;;;5.23;66.17
46007;BME280;31738;50.188;8.524;2023-03-05T06:32:26;99079.97;;;5.24;66.21
46007;BME280;31738;50.188;8.524;2023-03-05T06:34:52;99077.53;;;5.23;66.66
46007;BME280;31738;50.188;8.524;2023-03-05T06:37:17;99075.94;;;5.22;66.30
46007;BME280;31738;50.188;8.524;2023-03-05T06:39:43;99075.13;;;5.21;67.22
46007;BME280;31738;50.188;8.524;2023-03-05T06:42:08;99075.94;;;5.22;67.15
46007;BME280;31738;50.188;8.524;2023-03-05T06:44:37;99077.53;;;5.23;67.20
46007;BME280;31738;50.188;8.524;2023-03-05T06:47:04;99081.03;;;5.23;67.10
46007;BME280;31738;50.188;8.524;2023-03-05T06:49:30;99075.47;;;5.25;67.22
46007;BME280;31738;50.188;8.524;2023-03-05T06:51:56;99073.63;;;5.25;67.29
46007;BME280;31738;50.188;8.524;2023-03-05T06:54:21;99078.94;;;5.25;67.31
46007;BME280;31738;50.188;8.524;2023-03-05T06:56:47;99074.19;;;5.27;67.09
46007;BME280;31738;50.188;8.524;2023-03-05T06:59:14;99082.75;;;5.29;66.94
46007;BME280;31738;50.188;8.524;2023-03-05T07:01:40;99079.03;;;5.30;67.79
46007;BME280;31738;50.188;8.524;2023-03-05T07:04:06;99083.91;;;5.33;67.36
46007;BME280;31738;50.188;8.524;2023-03-05T07:06:34;99080.22;;;5.35;67.58
46007;BME280;31738;50.188;8.524;2023-03-05T07:09:01;99069.59;;;5.35;67.61
46007;BME280;31738;50.188;8.524;2023-03-05T07:11:28;99072.25;;;5.35;67.69
46007;BME280;31738;50.188;8.524;2023-03-05T07:13:54;99082.06;;;5.34;68.12
46007;BME280;31738;50.188;8.524;2023-03-05T07:16:22;99065.88;;;5.36;68.44
46007;BME280;31738;50.188;8.524;2023-03-05T07:18:48;99070.38;;;5.35;68.49
46007;BME280;31738;50.188;8.524;2023-03-05T07:21:17;99066.69;;;5.36;68.87
46007;BME280;31738;50.188;8.524;2023-03-05T07:23:43;99077.34;;;5.36;68.83
46007;BME280;31738;50.188;8.524;2023-03-05T07:26:09;99067.72;;;5.35;69.31
46007;BME280;31738;50.188;8.524;2023-03-05T07:28:35;99066.94;;;5.35;69.54
46007;BME280;31738;50.188;8.524;2023-03-05T07:31:03;99063.22;;;5.36;69.39
46007;BME280;31738;50.188;8.524;2023-03-05T07:33:29;99059.50;;;5.37;69.99
46007;BME280;31738;50.188;8.524;2023-03-05T07:35:56;99053.16;;;5.38;69.59
46007;BME280;31738;50.188;8.524;2023-03-05T07:38:22;99053.72;;;5.40;70.26
46007;BME280;31738;50.188;8.524;2023-03-05T07:40:48;99042.06;;;5.41;70.56
46007;BME280;31738;50.188;8.524;2023-03-05T07:43:14;99041.59;;;5.44;70.39
46007;BME280;31738;50.188;8.524;2023-03-05T07:45:42;99039.53;;;5.46;70.60
46007;BME280;31738;50.188;8.524;2023-03-05T07:48:12;99039.84;;;5.49;70.22
46007;BME280;31738;50.188;8.524;2023-03-05T07:50:37;99041.47;;;5.50;70.49
46007;BME280;31738;50.188;8.524;2023-03-05T07:53:03;99033.72;;;5.49;70.47
46007;BME280;31738;50.188;8.524;2023-03-05T07:55:28;99037.78;;;5.51;70.56
46007;BME280;31738;50.188;8.524;2023-03-05T07:57:54;99033.81;;;5.54;70.82
46007;BME280;31738;50.188;8.524;2023-03-05T08:00:20;99035.69;;;5.53;70.70
46007;BME280;31738;50.188;8.524;2023-03-05T08:02:46;99033.81;;;5.54;70.63
46007;BME280;31738;50.188;8.524;2023-03-05T08:05:13;99025.28;;;5.52;70.75
46007;BME280;31738;50.188;8.524;2023-03-05T08:07:38;99019.72;;;5.53;71.03
46007;BME280;31738;50.188;8.524;2023-03-05T08:10:05;99023.75;;;5.56;71.24
46007;BME280;31738;50.188;8.524;2023-03-05T08:12:30;99024.81;;;5.55;71.06
46007;BME280;31738;50.188;8.524;2023-03-05T08:14:56;99020.88;;;5.57;71.30
46007;BME280;31738;50.188;8.524;2023-03-05T08:17:22;99028.03;;;5.57;71.04
46007;BME280;31738;50.188;8.524;2023-03-05T08:19:47;99021.94;;;5.56;71.25
46007;BME280;31738;50.188;8.524;2023-03-05T08:22:13;99028.28;;;5.55;71.20
46007;BME280;31738;50.188;8.524;2023-03-05T08:24:42;99020.28;;;5.55;70.36
46007;BME280;31738;50.188;8.524;2023-03-05T08:27:07;99020.53;;;5.54;70.21
46007;BME280;31738;50.188;8.524;2023-03-05T08:29:33;99027.47;;;5.55;70.53
46007;BME280;31738;50.188;8.524;2023-03-05T08:31:59;99018.44;;;5.56;69.97
46007;BME280;31738;50.188;8.524;2023-03-05T08:34:24;99018.78;;;5.59;69.92
46007;BME280;31738;50.188;8.524;2023-03-05T08:36:50;99017.28;;;5.63;69.25
46007;BME280;31738;50.188;8.524;2023-03-05T08:39:15;99017.84;;;5.65;69.76
46007;BME280;31738;50.188;8.524;2023-03-05T08:41:41;99018.22;;;5.69;68.92
46007;BME280;31738;50.188;8.524;2023-03-05T08:44:07;99004.91;;;5.69;69.40
46007;BME280;31738;50.188;8.524;2023-03-05T08:46:32;99008.13;;;5.71;69.15
46007;BME280;31738;50.188;8.524;2023-03-05T08:48:58;99011.59;;;5.71;68.95
46007;BME280;31738;50.188;8.524;2023-03-05T08:51:24;99008.69;;;5.73;69.17
46007;BME280;31738;50.188;8.524;2023-03-05T08:53:50;99003.38;;;5.73;69.26
46007;BME280;31738;50.188;8.524;2023-03-05T08:56:16;99010.78;;;5.71;68.88
46007;BME280;31738;50.188;8.524;2023-03-05T08:58:43;99011.25;;;5.68;68.98
46007;BME280;31738;50.188;8.524;2023-03-05T09:01:08;99014.72;;;5.68;68.68
46007;BME280;31738;50.188;8.524;2023-03-05T09:03:34;99007.56;;;5.69;69.28
46007;BME280;31738;50.188;8.524;2023-03-05T09:06:02;99011.59;;;5.71;69.15
46007;BME280;31738;50.188;8.524;2023-03-05T09:08:28;99009.16;;;5.70;68.43
46007;BME280;31738;50.188;8.524;2023-03-05T09:10:54;99017.72;;;5.72;68.47
46007;BME280;31738;50.188;8.524;2023-03-05T09:13:19;99007.09;;;5.72;68.44
46007;BME280;31738;50.188;8.524;2023-03-05T09:15:45;99004.75;;;5.75;68.56
46007;BME280;31738;50.188;8.524;2023-03-05T09:18:10;98995.81;;;5.81;68.59
46007;BME280;31738;50.188;8.524;2023-03-05T09:20:36;98996.78;;;5.87;67.98
46007;BME280;31738;50.188;8.524;2023-03-05T09:23:02;98989.44;;;5.94;68.05
46007;BME280;31738;50.188;8.524;2023-03-05T09:25:27;98991.97;;;6.00;67.63
46007;BME280;31738;50.188;8.524;2023-03-05T09:27:53;98995.53;;;6.06;66.61
46007;BME280;31738;50.188;8.524;2023-03-05T09:30:19;99001.44;;;6.08;66.59
46007;BME280;31738;50.188;8.524;2023-03-05T09:32:44;99003.03;;;6.09;66.01
46007;BME280;31738;50.188;8.524;2023-03-05T09:35:10;99009.78;;;6.11;66.20
46007;BME280;31738;50.188;8.524;2023-03-05T09:37:36;99006.88;;;6.13;66.02
46007;BME280;31738;50.188;8.524;2023-03-05T09:40:01;99000.81;;;6.17;65.32
46007;BME280;31738;50.188;8.524;2023-03-05T09:50:58;98997.97;;;6.52;65.37
46007;BME280;31738;50.188;8.524;2023-03-05T09:53:44;98997.00;;;6.58;64.45
46007;BME280;31738;50.188;8.524;2023-03-05T09:56:15;99002.34;;;6.58;64.63
46007;BME280;31738;50.188;8.524;2023-03-05T10:01:52;98997.50;;;6.55;64.39
46007;BME280;31738;50.188;8.524;2023-03-05T10:04:29;98998.66;;;6.59;64.73
46007;BME280;31738;50.188;8.524;2023-03-05T10:07:10;99000.72;;;6.57;64.16
46007;BME280;31738;50.188;8.524;2023-03-05T10:09:51;98996.94;;;6.53;63.97
46007;BME280;31738;50.188;8.524;2023-03-05T10:12:42;99001.03;;;6.44;63.89
46007;BME280;31738;50.188;8.524;2023-03-05T10:15:14;98999.31;;;6.38;64.52
46007;BME280;31738;50.188;8.524;2023-03-05T10:17:52;99003.03;;;6.37;64.54
46007;BME280;31738;50.188;8.524;2023-03-05T10:20:42;99009.91;;;6.33;65.34
46007;BME280;31738;50.188;8.524;2023-03-05T10:23:22;98999.72;;;6.30;66.22
46007;BME280;31738;50.188;8.524;2023-03-05T10:26:01;98994.41;;;6.30;66.51
46007;BME280;31738;50.188;8.524;2023-03-05T10:29:01;98997.53;;;6.27;65.40
46007;BME280;31738;50.188;8.524;2023-03-05T10:31:45;98986.69;;;6.17;65.37
46007;BME280;31738;50.188;8.524;2023-03-05T10:34:30;98983.44;;;6.15;66.37
46007;BME280;31738;50.188;8.524;2023-03-05T10:43:16;98973.50;;;6.10;66.41
46007;BME280;31738;50.188;8.524;2023-03-05T10:45:49;98963.69;;;6.11;66.38
46007;BME280;31738;50.188;8.524;2023-03-05T10:51:11;98962.06;;;6.10;66.49
46007;BME280;31738;50.188;8.524;2023-03-05T10:53:49;98963.34;;;6.07;66.75
46007;BME280;31738;50.188;8.524;2023-03-05T10:56:21;98950.28;;;6.06;66.68
46007;BME280;31738;50.188;8.524;2023-03-05T10:58:46;98960.91;;;6.06;66.66
46007;BME280;31738;50.188;8.524;2023-03-05T11:06:15;98946.47;;;6.02;67.09
46007;BME280;31738;50.188;8.524;2023-03-05T11:08:50;98935.00;;;6.01;67.42
46007;BME280;31738;50.188;8.524;2023-03-05T11:11:21;98936.41;;;6.04;67.13
46007;BME280;31738;50.188;8.524;2023-03-05T11:16:28;98917.06;;;6.08;67.95
46007;BME280;31738;50.188;8.524;2023-03-05T11:21:38;98904.88;;;6.12;67.96
46007;BME280;31738;50.188;8.524;2023-03-05T11:24:18;98898.00;;;6.16;68.07
46007;BME280;31738;50.188;8.524;2023-03-05T11:26:51;98895.44;;;6.21;68.51
46007;BME280;31738;50.188;8.524;2023-03-05T11:29:24;98883.03;;;6.27;68.90
46007;BME280;31738;50.188;8.524;2023-03-05T11:31:51;98878.91;;;6.36;68.32
46007;BME280;31738;50.188;8.524;2023-03-05T11:37:03;98866.88;;;6.50;68.70
46007;BME280;31738;50.188;8.524;2023-03-05T11:39:32;98870.16;;;6.57;68.27
46007;BME280;31738;50.188;8.524;2023-03-05T11:42:10;98860.69;;;6.66;68.28
46007;BME280;31738;50.188;8.524;2023-03-05T11:44:53;98854.13;;;6.73;67.55
46007;BME280;31738;50.188;8.524;2023-03-05T11:47:38;98858.19;;;6.76;67.00
46007;BME280;31738;50.188;8.524;2023-03-05T11:50:27;98852.41;;;6.84;67.26
46007;BME280;31738;50.188;8.524;2023-03-05T11:53:12;98849.41;;;6.97;67.19
46007;BME280;31738;50.188;8.524;2023-03-05T11:55:51;98850.28;;;7.03;66.44
46007;BME280;31738;50.188;8.524;2023-03-05T11:58:45;98849.09;;;7.15;66.15
46007;BME280;31738;50.188;8.524;2023-03-05T12:01:20;98855.03;;;7.22;65.37
46007;BME280;31738;50.188;8.524;2023-03-05T12:03:48;98853.00;;;7.29;64.94
46007;BME280;31738;50.188;8.524;2023-03-05T12:06:28;98848.28;;;7.36;64.20
46007;BME280;31738;50.188;8.524;2023-03-05T12:08:56;98848.84;;;7.38;64.38
46007;BME280;31738;50.188;8.524;2023-03-05T12:11:28;98849.94;;;7.42;64.65
46007;BME280;31738;50.188;8.524;2023-03-05T12:14:01;98846.53;;;7.47;64.40
46007;BME280;31738;50.188;8.524;2023-03-05T12:16:47;98850.56;;;7.49;63.90
46007;BME280;31738;50.188;8.524;2023-03-05T12:19:29;98849.19;;;7.47;63.08
46007;BME280;31738;50.188;8.524;2023-03-05T12:21:59;98847.03;;;7.44;62.54
46007;BME280;31738;50.188;8.524;2023-03-05T12:29:50;98843.09;;;7.51;61.35
46007;BME280;31738;50.188;8.524;2023-03-05T12:34:59;98849.31;;;7.57;61.84
46007;BME280;31738;50.188;8.524;2023-03-05T12:39:58;98843.22;;;7.61;60.28
46007;BME280;31738;50.188;8.524;2023-03-05T12:47:35;98845.22;;;7.49;60.07
46007;BME280;31738;50.188;8.524;2023-03-05T12:50:01;98847.59;;;7.46;60.29
46007;BME280;31738;50.188;8.524;2023-03-05T12:52:32;98842.50;;;7.44;59.43
46007;BME280;31738;50.188;8.524;2023-03-05T12:55:14;98845.44;;;7.43;59.40
46007;BME280;31738;50.188;8.524;2023-03-05T12:57:42;98845.84;;;7.35;59.78
46007;BME280;31738;50.188;8.524;2023-03-05T13:00:21;98848.84;;;7.38;59.57
46007;BME280;31738;50.188;8.524;2023-03-05T13:02:54;98838.72;;;7.40;59.49
46007;BME280;31738;50.188;8.524;2023-03-05T13:05:33;98840.91;;;7.43;59.27
46007;BME280;31738;50.188;8.524;2023-03-05T13:08:20;98833.94;;;7.42;59.09
46007;BME280;31738;50.188;8.524;2023-03-05T13:10:51;98826.44;;;7.39;58.65
46007;BME280;31738;50.188;8.524;2023-03-05T13:13:18;98834.94;;;7.36;58.74
46007;BME280;31738;50.188;8.524;2023-03-05T13:15:46;98839.16;;;7.32;58.32
46007;BME280;31738;50.188;8.524;2023-03-05T13:18:18;98830.59;;;7.30;58.04
46007;BME280;31738;50.188;8.524;2023-03-05T13:20:45;98844.19;;;7.29;58.42
46007;BME280;31738;50.188;8.524;2023-03-05T13:28:21;98838.03;;;7.28;57.38
46007;BME280;31738;50.188;8.524;2023-03-05T13:30:56;98842.91;;;7.31;57.68
46007;BME280;31738;50.188;8.524;2023-03-05T13:33:34;98841.28;;;7.30;57.49
46007;BME280;31738;50.188;8.524;2023-03-05T13:36:00;98832.22;;;7.31;57.48
46007;BME280;31738;50.188;8.524;2023-03-05T13:38:39;98828.81;;;7.36;57.55
46007;BME280;31738;50.188;8.524;2023-03-05T13:43:43;98823.25;;;7.42;56.62
46007;BME280;31738;50.188;8.524;2023-03-05T13:46:09;98820.59;;;7.42;56.58
46007;BME280;31738;50.188;8.524;2023-03-05T13:48:34;98824.56;;;7.40;56.53
46007;BME280;31738;50.188;8.524;2023-03-05T13:51:00;98812.31;;;7.39;56.69
46007;BME280;31738;50.188;8.524;2023-03-05T13:53:32;98820.59;;;7.42;57.19
46007;BME280;31738;50.188;8.524;2023-03-05T13:56:01;98814.50;;;7.47;56.57
46007;BME280;31738;50.188;8.524;2023-03-05T13:58:44;98815.31;;;7.47;56.83
46007;BME280;31738;50.188;8.524;2023-03-05T14:01:26;98810.47;;;7.44;56.50
46007;BME280;31738;50.188;8.524;2023-03-05T14:03:57;98816.31;;;7.41;57.13
46007;BME280;31738;50.188;8.524;2023-03-05T14:06:27;98811.00;;;7.41;56.70
46007;BME280;31738;50.188;8.524;2023-03-05T14:09:04;98807.75;;;7.39;57.02
46007;BME280;31738;50.188;8.524;2023-03-05T14:11:30;98805.34;;;7.38;57.16
46007;BME280;31738;50.188;8.524;2023-03-05T14:14:01;98802.91;;;7.36;57.34
46007;BME280;31738;50.188;8.524;2023-03-05T14:16:29;98801.81;;;7.32;57.11
46007;BME280;31738;50.188;8.524;2023-03-05T14:18:59;98790.34;;;7.32;57.21
46007;BME280;31738;50.188;8.524;2023-03-05T14:21:48;98790.34;;;7.32;57.46
46007;BME280;31738;50.188;8.524;2023-03-05T14:24:20;98782.59;;;7.30;57.37
46007;BME280;31738;50.188;8.524;2023-03-05T14:26:52;98785.50;;;7.29;57.29
46007;BME280;31738;50.188;8.524;2023-03-05T14:29:22;98774.00;;;7.28;57.25